sensor_id;sensor_type;location;lat;lon;timestamp;P1;durP1;ratioP1;P2;durP2;ratioP2
39346;SDS011;26262;49.836;6.632;2023-04-03T00:01:31;1.67;;;1.13;;
39346;SDS011;26262;49.836;6.632;2023-04-03T00:03:57;1.65;;;1.05;;
39346;SDS011;26262;49.836;6.632;2023-04-03T00:06:23;2.03;;;1.08;;
39346;SDS011;26262;49.836;6.632;2023-04-03T00:08:51;3.00;;;1.60;;
39346;SDS011;26262;49.836;6.632;2023-04-03T00:11:17;3.00;;;1.10;;
39346;SDS011;26262;49.836;6.632;2023-04-03T00:13:44;2.83;;;0.98;;
39346;SDS011;26262;49.836;6.632;2023-04-03T00:16:09;1.77;;;1.30;;
39346;SDS011;26262;49.836;6.632;2023-04-03T00:18:35;4.05;;;1.33;;
39346;SDS011;26262;49.836;6.632;2023-04-03T00:21:04;2.75;;;1.35;;
39346;SDS011;26262;49.836;6.632;2023-04-03T00:23:30;2.45;;;1.20;;
39346;SDS011;26262;49.836;6.632;2023-04-03T00:25:56;2.53;;;1.10;;
39346;SDS011;26262;49.836;6.632;2023-04-03T00:28:21;3.13;;;1.20;;
39346;SDS011;26262;49.836;6.632;2023-04-03T00:30:51;1.38;;;1.02;;
39346;SDS011;26262;49.836;6.632;2023-04-03T00:33:17;3.05;;;1.20;;
39346;SDS011;26262;49.836;6.632;2023-04-03T00:35:42;2.75;;;1.20;;
39346;SDS011;26262;49.836;6.632;2023-04-03T00:38:08;4.20;;;1.13;;
39346;SDS011;26262;49.836;6.632;2023-04-03T00:40:35;2.42;;;1.40;;
39346;SDS011;26262;49.836;6.632;2023-04-03T00:43:08;4.28;;;1.40;;
39346;SDS011;26262;49.836;6.632;2023-04-03T00:45:38;3.75;;;1.30;;
39346;SDS011;26262;49.836;6.632;2023-04-03T00:48:07;3.13;;;1.20;;
39346;SDS011;26262;49.836;6.632;2023-04-03T00:50:41;2.58;;;1.50;;
39346;SDS011;26262;49.836;6.632;2023-04-03T00:53:08;3.42;;;1.10;;
39346;SDS011;26262;49.836;6.632;2023-04-03T00:55:38;4.00;;;1.60;;
39346;SDS011;26262;49.836;6.632;2023-04-03T00:58:04;2.17;;;0.90;;
39346;SDS011;26262;49.836;6.632;2023-04-03T01:00:32;2.10;;;1.20;;
39346;SDS011;26262;49.836;6.632;2023-04-03T01:02:57;3.47;;;1.58;;
39346;SDS011;26262;49.836;6.632;2023-04-03T01:05:23;2.83;;;1.70;;
39346;SDS011;26262;49.836;6.632;2023-04-03T01:07:49;2.83;;;1.27;;
39346;SDS011;26262;49.836;6.632;2023-04-03T01:10:17;3.20;;;1.50;;
39346;SDS011;26262;49.836;6.632;2023-04-03T01:12:45;2.95;;;1.33;;
39346;SDS011;26262;49.836;6.632;2023-04-03T01:15:14;3.67;;;1.75;;
39346;SDS011;26262;49.836;6.632;2023-04-03T01:17:49;1.95;;;1.15;;
39346;SDS011;26262;49.836;6.632;2023-04-03T01:25:30;2.95;;;1.10;;
39346;SDS011;26262;49.836;6.632;2023-04-03T01:27:57;4.63;;;1.20;;
39346;SDS011;26262;49.836;6.632;2023-04-03T01:30:24;3.17;;;1.13;;
39346;SDS011;26262;49.836;6.632;2023-04-03T01:32:55;2.65;;;1.15;;
39346;SDS011;26262;49.836;6.632;2023-04-03T01:35:21;2.13;;;1.20;;
39346;SDS011;26262;49.836;6.632;2023-04-03T01:37:46;2.25;;;1.30;;
39346;SDS011;26262;49.836;6.632;2023-04-03T01:40:12;3.10;;;1.55;;
39346;SDS011;26262;49.836;6.632;2023-04-03T01:42:37;3.42;;;1.20;;
39346;SDS011;26262;49.836;6.632;2023-04-03T01:45:03;2.90;;;1.38;;
39346;SDS011;26262;49.836;6.632;2023-04-03T01:47:29;3.55;;;1.10;;
39346;SDS011;26262;49.836;6.632;2023-04-03T01:49:54;3.25;;;1.40;;
39346;SDS011;26262;49.836;6.632;2023-04-03T01:52:20;2.63;;;1.27;;
39346;SDS011;26262;49.836;6.632;2023-04-03T01:54:46;2.65;;;1.40;;
39346;SDS011;26262;49.836;6.632;2023-04-03T01:57:11;2.95;;;1.38;;
39346;SDS011;26262;49.836;6.632;2023-04-03T01:59:38;3.33;;;1.67;;
39346;SDS011;26262;49.836;6.632;2023-04-03T02:02:04;3.97;;;1.27;;
39346;SDS011;26262;49.836;6.632;2023-04-03T02:04:29;2.58;;;1.25;;
39346;SDS011;26262;49.836;6.632;2023-04-03T02:06:55;2.05;;;1.27;;
39346;SDS011;26262;49.836;6.632;2023-04-03T02:09:20;3.30;;;1.23;;
39346;SDS011;26262;49.836;6.632;2023-04-03T02:11:46;3.97;;;1.10;;
39346;SDS011;26262;49.836;6.632;2023-04-03T02:14:11;3.05;;;1.10;;
39346;SDS011;26262;49.836;6.632;2023-04-03T02:16:37;2.42;;;1.52;;
39346;SDS011;26262;49.836;6.632;2023-04-03T02:19:03;3.25;;;1.27;;
39346;SDS011;26262;49.836;6.632;2023-04-03T02:21:28;1.77;;;1.05;;
39346;SDS011;26262;49.836;6.632;2023-04-03T02:23:54;2.97;;;1.20;;
39346;SDS011;26262;49.836;6.632;2023-04-03T02:26:19;2.70;;;1.75;;
39346;SDS011;26262;49.836;6.632;2023-04-03T02:28:45;2.72;;;1.58;;
39346;SDS011;26262;49.836;6.632;2023-04-03T02:31:11;3.92;;;1.40;;
39346;SDS011;26262;49.836;6.632;2023-04-03T02:33:37;2.75;;;1.27;;
39346;SDS011;26262;49.836;6.632;2023-04-03T02:36:04;2.15;;;1.20;;
39346;SDS011;26262;49.836;6.632;2023-04-03T02:38:30;3.15;;;1.65;;
39346;SDS011;26262;49.836;6.632;2023-04-03T02:41:06;2.08;;;1.23;;
39346;SDS011;26262;49.836;6.632;2023-04-03T02:43:33;3.33;;;1.42;;
39346;SDS011;26262;49.836;6.632;2023-04-03T02:45:59;2.97;;;1.10;;
39346;SDS011;26262;49.836;6.632;2023-04-03T02:48:25;2.10;;;1.15;;
39346;SDS011;26262;49.836;6.632;2023-04-03T02:50:51;2.33;;;1.10;;
39346;SDS011;26262;49.836;6.632;2023-04-03T02:53:17;3.70;;;1.27;;
39346;SDS011;26262;49.836;6.632;2023-04-03T02:55:43;3.53;;;1.40;;
39346;SDS011;26262;49.836;6.632;2023-04-03T02:58:09;2.92;;;1.20;;
39346;SDS011;26262;49.836;6.632;2023-04-03T03:00:35;3.70;;;1.33;;
39346;SDS011;26262;49.836;6.632;2023-04-03T03:03:01;2.15;;;1.30;;
39346;SDS011;26262;49.836;6.632;2023-04-03T03:05:27;2.22;;;1.38;;
39346;SDS011;26262;49.836;6.632;2023-04-03T03:07:54;3.80;;;1.33;;
39346;SDS011;26262;49.836;6.632;2023-04-03T03:10:20;2.10;;;1.20;;
39346;SDS011;26262;49.836;6.632;2023-04-03T03:12:46;2.35;;;1.30;;
39346;SDS011;26262;49.836;6.632;2023-04-03T03:15:12;2.92;;;1.33;;
39346;SDS011;26262;49.836;6.632;2023-04-03T03:17:37;2.75;;;1.00;;
39346;SDS011;26262;49.836;6.632;2023-04-03T03:20:04;3.25;;;1.30;;
39346;SDS011;26262;49.836;6.632;2023-04-03T03:22:30;3.90;;;1.30;;
39346;SDS011;26262;49.836;6.632;2023-04-03T03:24:56;3.33;;;1.50;;
39346;SDS011;26262;49.836;6.632;2023-04-03T03:27:22;2.40;;;1.15;;
39346;SDS011;26262;49.836;6.632;2023-04-03T03:29:48;2.42;;;1.17;;
39346;SDS011;26262;49.836;6.632;2023-04-03T03:32:14;2.13;;;1.45;;
39346;SDS011;26262;49.836;6.632;2023-04-03T03:34:40;4.15;;;1.25;;
39346;SDS011;26262;49.836;6.632;2023-04-03T03:37:05;2.33;;;1.33;;
39346;SDS011;26262;49.836;6.632;2023-04-03T03:39:31;2.17;;;1.00;;
39346;SDS011;26262;49.836;6.632;2023-04-03T03:41:56;3.22;;;1.15;;
39346;SDS011;26262;49.836;6.632;2023-04-03T03:44:22;1.90;;;1.17;;
39346;SDS011;26262;49.836;6.632;2023-04-03T03:46:47;4.05;;;1.33;;
39346;SDS011;26262;49.836;6.632;2023-04-03T03:49:13;6.07;;;1.83;;
39346;SDS011;26262;49.836;6.632;2023-04-03T03:51:39;3.53;;;1.45;;
39346;SDS011;26262;49.836;6.632;2023-04-03T03:54:05;1.88;;;1.02;;
39346;SDS011;26262;49.836;6.632;2023-04-03T03:56:31;2.05;;;1.20;;
39346;SDS011;26262;49.836;6.632;2023-04-03T03:58:57;4.75;;;1.30;;
39346;SDS011;26262;49.836;6.632;2023-04-03T04:01:23;4.78;;;1.40;;
39346;SDS011;26262;49.836;6.632;2023-04-03T04:03:49;3.50;;;0.95;;
39346;SDS011;26262;49.836;6.632;2023-04-03T04:06:15;2.15;;;1.00;;
39346;SDS011;26262;49.836;6.632;2023-04-03T04:08:40;2.53;;;1.10;;
39346;SDS011;26262;49.836;6.632;2023-04-03T04:11:07;3.05;;;1.23;;
39346;SDS011;26262;49.836;6.632;2023-04-03T04:13:32;3.80;;;1.33;;
39346;SDS011;26262;49.836;6.632;2023-04-03T04:15:58;3.25;;;1.45;;
39346;SDS011;26262;49.836;6.632;2023-04-03T04:18:24;4.18;;;1.55;;
39346;SDS011;26262;49.836;6.632;2023-04-03T04:20:50;2.20;;;0.98;;
39346;SDS011;26262;49.836;6.632;2023-04-03T04:23:16;5.05;;;1.40;;
39346;SDS011;26262;49.836;6.632;2023-04-03T04:25:46;3.25;;;1.77;;
39346;SDS011;26262;49.836;6.632;2023-04-03T04:28:12;3.40;;;1.20;;
39346;SDS011;26262;49.836;6.632;2023-04-03T04:30:38;1.90;;;1.35;;
39346;SDS011;26262;49.836;6.632;2023-04-03T04:33:03;3.33;;;1.30;;
39346;SDS011;26262;49.836;6.632;2023-04-03T04:35:29;1.80;;;1.10;;
39346;SDS011;26262;49.836;6.632;2023-04-03T04:37:55;2.88;;;1.35;;
39346;SDS011;26262;49.836;6.632;2023-04-03T04:40:21;2.47;;;1.17;;
39346;SDS011;26262;49.836;6.632;2023-04-03T04:42:46;2.03;;;1.05;;
39346;SDS011;26262;49.836;6.632;2023-04-03T04:45:12;4.03;;;1.25;;
39346;SDS011;26262;49.836;6.632;2023-04-03T04:47:37;2.03;;;1.13;;
39346;SDS011;26262;49.836;6.632;2023-04-03T04:50:03;4.35;;;1.23;;
39346;SDS011;26262;49.836;6.632;2023-04-03T04:52:29;4.57;;;1.48;;
39346;SDS011;26262;49.836;6.632;2023-04-03T04:54:55;2.90;;;1.30;;
39346;SDS011;26262;49.836;6.632;2023-04-03T04:57:20;2.90;;;1.15;;
39346;SDS011;26262;49.836;6.632;2023-04-03T04:59:46;3.58;;;1.23;;
39346;SDS011;26262;49.836;6.632;2023-04-03T05:02:11;1.75;;;1.17;;
39346;SDS011;26262;49.836;6.632;2023-04-03T05:04:37;2.58;;;1.20;;
39346;SDS011;26262;49.836;6.632;2023-04-03T05:07:02;5.53;;;2.60;;
39346;SDS011;26262;49.836;6.632;2023-04-03T05:09:28;1.63;;;1.10;;
39346;SDS011;26262;49.836;6.632;2023-04-03T05:11:54;4.05;;;1.40;;
39346;SDS011;26262;49.836;6.632;2023-04-03T05:14:21;3.03;;;1.23;;
39346;SDS011;26262;49.836;6.632;2023-04-03T05:16:46;5.10;;;1.17;;
39346;SDS011;26262;49.836;6.632;2023-04-03T05:19:12;2.22;;;1.30;;
39346;SDS011;26262;49.836;6.632;2023-04-03T05:21:38;3.20;;;1.58;;
39346;SDS011;26262;49.836;6.632;2023-04-03T05:24:04;4.28;;;2.70;;
39346;SDS011;26262;49.836;6.632;2023-04-03T05:26:30;2.42;;;1.30;;
39346;SDS011;26262;49.836;6.632;2023-04-03T05:28:56;2.80;;;1.60;;
39346;SDS011;26262;49.836;6.632;2023-04-03T05:31:21;6.30;;;1.52;;
39346;SDS011;26262;49.836;6.632;2023-04-03T05:33:47;2.30;;;1.60;;
39346;SDS011;26262;49.836;6.632;2023-04-03T05:36:13;2.22;;;1.23;;
39346;SDS011;26262;49.836;6.632;2023-04-03T05:38:39;3.28;;;1.60;;
39346;SDS011;26262;49.836;6.632;2023-04-03T05:41:04;2.75;;;1.27;;
39346;SDS011;26262;49.836;6.632;2023-04-03T05:43:30;2.55;;;1.55;;
39346;SDS011;26262;49.836;6.632;2023-04-03T05:45:56;2.33;;;1.17;;
39346;SDS011;26262;49.836;6.632;2023-04-03T05:48:21;3.03;;;1.73;;
39346;SDS011;26262;49.836;6.632;2023-04-03T05:50:47;5.03;;;1.48;;
39346;SDS011;26262;49.836;6.632;2023-04-03T05:53:17;3.70;;;1.73;;
39346;SDS011;26262;49.836;6.632;2023-04-03T05:55:47;1.70;;;1.30;;
39346;SDS011;26262;49.836;6.632;2023-04-03T05:58:13;2.28;;;1.50;;
39346;SDS011;26262;49.836;6.632;2023-04-03T06:00:38;4.20;;;1.65;;
39346;SDS011;26262;49.836;6.632;2023-04-03T06:03:05;2.65;;;1.42;;
39346;SDS011;26262;49.836;6.632;2023-04-03T06:05:31;2.95;;;1.60;;
39346;SDS011;26262;49.836;6.632;2023-04-03T06:07:57;3.67;;;1.60;;
39346;SDS011;26262;49.836;6.632;2023-04-03T06:10:22;2.38;;;1.63;;
39346;SDS011;26262;49.836;6.632;2023-04-03T06:12:48;4.13;;;1.88;;
39346;SDS011;26262;49.836;6.632;2023-04-03T06:15:15;3.53;;;1.63;;
39346;SDS011;26262;49.836;6.632;2023-04-03T06:17:41;2.95;;;1.80;;
39346;SDS011;26262;49.836;6.632;2023-04-03T06:20:07;4.78;;;2.83;;
39346;SDS011;26262;49.836;6.632;2023-04-03T06:22:34;4.93;;;2.88;;
39346;SDS011;26262;49.836;6.632;2023-04-03T06:25:00;3.28;;;2.55;;
39346;SDS011;26262;49.836;6.632;2023-04-03T06:27:27;3.88;;;2.38;;
39346;SDS011;26262;49.836;6.632;2023-04-03T06:29:52;4.25;;;2.10;;
39346;SDS011;26262;49.836;6.632;2023-04-03T06:32:18;3.70;;;2.40;;
39346;SDS011;26262;49.836;6.632;2023-04-03T06:34:43;4.28;;;2.22;;
39346;SDS011;26262;49.836;6.632;2023-04-03T06:37:16;5.30;;;2.75;;
39346;SDS011;26262;49.836;6.632;2023-04-03T06:39:43;8.20;;;6.05;;
39346;SDS011;26262;49.836;6.632;2023-04-03T06:42:10;6.40;;;5.15;;
39346;SDS011;26262;49.836;6.632;2023-04-03T06:44:36;6.55;;;3.47;;
39346;SDS011;26262;49.836;6.632;2023-04-03T06:47:01;5.28;;;2.15;;
39346;SDS011;26262;49.836;6.632;2023-04-03T06:49:27;8.77;;;5.30;;
39346;SDS011;26262;49.836;6.632;2023-04-03T06:51:53;8.10;;;4.32;;
39346;SDS011;26262;49.836;6.632;2023-04-03T06:54:19;4.15;;;2.83;;
39346;SDS011;26262;49.836;6.632;2023-04-03T06:56:45;3.40;;;1.80;;
39346;SDS011;26262;49.836;6.632;2023-04-03T06:59:11;3.50;;;1.55;;
39346;SDS011;26262;49.836;6.632;2023-04-03T07:01:38;3.58;;;1.90;;
39346;SDS011;26262;49.836;6.632;2023-04-03T07:04:04;5.32;;;2.15;;
39346;SDS011;26262;49.836;6.632;2023-04-03T07:06:30;5.85;;;2.00;;
39346;SDS011;26262;49.836;6.632;2023-04-03T07:08:57;6.30;;;4.35;;
39346;SDS011;26262;49.836;6.632;2023-04-03T07:11:23;6.22;;;2.88;;
39346;SDS011;26262;49.836;6.632;2023-04-03T07:13:49;3.13;;;1.30;;
39346;SDS011;26262;49.836;6.632;2023-04-03T07:16:15;5.05;;;1.40;;
39346;SDS011;26262;49.836;6.632;2023-04-03T07:18:41;6.25;;;2.47;;
39346;SDS011;26262;49.836;6.632;2023-04-03T07:21:06;6.43;;;2.20;;
39346;SDS011;26262;49.836;6.632;2023-04-03T07:23:32;6.53;;;2.50;;
39346;SDS011;26262;49.836;6.632;2023-04-03T07:25:58;5.15;;;1.50;;
39346;SDS011;26262;49.836;6.632;2023-04-03T07:28:23;4.38;;;1.23;;
39346;SDS011;26262;49.836;6.632;2023-04-03T07:30:54;4.03;;;1.48;;
39346;SDS011;26262;49.836;6.632;2023-04-03T07:33:25;3.60;;;1.35;;
39346;SDS011;26262;49.836;6.632;2023-04-03T07:35:51;4.50;;;1.48;;
39346;SDS011;26262;49.836;6.632;2023-04-03T07:38:17;4.15;;;1.80;;
39346;SDS011;26262;49.836;6.632;2023-04-03T07:40:47;4.43;;;1.50;;
39346;SDS011;26262;49.836;6.632;2023-04-03T07:43:14;3.00;;;1.35;;
39346;SDS011;26262;49.836;6.632;2023-04-03T07:45:41;4.10;;;1.20;;
39346;SDS011;26262;49.836;6.632;2023-04-03T07:48:08;3.67;;;1.20;;
39346;SDS011;26262;49.836;6.632;2023-04-03T07:50:34;6.25;;;1.63;;
39346;SDS011;26262;49.836;6.632;2023-04-03T07:52:59;3.58;;;1.30;;
39346;SDS011;26262;49.836;6.632;2023-04-03T07:55:25;2.15;;;1.05;;
39346;SDS011;26262;49.836;6.632;2023-04-03T07:57:51;3.42;;;1.20;;
39346;SDS011;26262;49.836;6.632;2023-04-03T08:00:16;1.55;;;0.90;;
39346;SDS011;26262;49.836;6.632;2023-04-03T08:02:43;5.57;;;1.65;;
39346;SDS011;26262;49.836;6.632;2023-04-03T08:05:09;4.47;;;1.25;;
39346;SDS011;26262;49.836;6.632;2023-04-03T08:07:36;4.47;;;1.40;;
39346;SDS011;26262;49.836;6.632;2023-04-03T08:10:02;4.68;;;1.33;;
39346;SDS011;26262;49.836;6.632;2023-04-03T08:12:28;3.33;;;1.08;;
39346;SDS011;26262;49.836;6.632;2023-04-03T08:14:54;3.38;;;1.25;;
39346;SDS011;26262;49.836;6.632;2023-04-03T08:17:20;4.10;;;1.17;;
39346;SDS011;26262;49.836;6.632;2023-04-03T08:19:46;3.63;;;1.00;;
39346;SDS011;26262;49.836;6.632;2023-04-03T08:22:12;2.10;;;1.10;;
39346;SDS011;26262;49.836;6.632;2023-04-03T08:24:37;2.70;;;1.20;;
39346;SDS011;26262;49.836;6.632;2023-04-03T08:27:03;3.58;;;1.35;;
39346;SDS011;26262;49.836;6.632;2023-04-03T08:29:29;3.42;;;1.55;;
39346;SDS011;26262;49.836;6.632;2023-04-03T08:31:54;3.67;;;1.15;;
39346;SDS011;26262;49.836;6.632;2023-04-03T08:34:20;2.97;;;1.63;;
39346;SDS011;26262;49.836;6.632;2023-04-03T08:36:46;4.60;;;1.58;;
39346;SDS011;26262;49.836;6.632;2023-04-03T08:39:12;4.13;;;1.35;;
39346;SDS011;26262;49.836;6.632;2023-04-03T08:41:41;4.00;;;1.15;;
39346;SDS011;26262;49.836;6.632;2023-04-03T08:46:54;5.22;;;1.33;;
39346;SDS011;26262;49.836;6.632;2023-04-03T08:51:56;4.20;;;1.40;;
39346;SDS011;26262;49.836;6.632;2023-04-03T08:54:27;2.45;;;1.33;;
39346;SDS011;26262;49.836;6.632;2023-04-03T08:56:55;3.70;;;2.13;;
39346;SDS011;26262;49.836;6.632;2023-04-03T08:59:27;4.32;;;1.40;;
39346;SDS011;26262;49.836;6.632;2023-04-03T09:01:57;4.53;;;1.52;;
39346;SDS011;26262;49.836;6.632;2023-04-03T09:04:27;4.82;;;1.58;;
39346;SDS011;26262;49.836;6.632;2023-04-03T09:06:58;3.03;;;1.25;;
39346;SDS011;26262;49.836;6.632;2023-04-03T09:09:32;3.22;;;1.40;;
39346;SDS011;26262;49.836;6.632;2023-04-03T09:14:39;3.50;;;1.65;;
39346;SDS011;26262;49.836;6.632;2023-04-03T09:17:29;4.32;;;1.27;;
39346;SDS011;26262;49.836;6.632;2023-04-03T09:22:43;2.95;;;1.15;;
39346;SDS011;26262;49.836;6.632;2023-04-03T09:27:38;2.78;;;1.10;;
39346;SDS011;26262;49.836;6.632;2023-04-03T09:30:05;4.47;;;1.17;;
39346;SDS011;26262;49.836;6.632;2023-04-03T09:32:35;5.28;;;1.83;;
39346;SDS011;26262;49.836;6.632;2023-04-03T09:35:03;3.97;;;1.85;;
39346;SDS011;26262;49.836;6.632;2023-04-03T09:37:37;4.78;;;1.80;;
39346;SDS011;26262;49.836;6.632;2023-04-03T09:42:53;3.17;;;1.52;;
39346;SDS011;26262;49.836;6.632;2023-04-03T09:45:23;2.78;;;1.25;;
39346;SDS011;26262;49.836;6.632;2023-04-03T09:48:37;3.33;;;1.73;;
39346;SDS011;26262;49.836;6.632;2023-04-03T09:50:38;7.20;;;1.63;;
39346;SDS011;26262;49.836;6.632;2023-04-03T09:53:24;4.60;;;1.50;;
39346;SDS011;26262;49.836;6.632;2023-04-03T09:55:58;3.05;;;1.15;;
39346;SDS011;26262;49.836;6.632;2023-04-03T09:58:28;2.03;;;1.20;;
39346;SDS011;26262;49.836;6.632;2023-04-03T10:01:25;3.28;;;1.45;;
39346;SDS011;26262;49.836;6.632;2023-04-03T10:06:43;2.47;;;1.17;;
39346;SDS011;26262;49.836;6.632;2023-04-03T10:09:19;3.20;;;1.23;;
39346;SDS011;26262;49.836;6.632;2023-04-03T10:14:38;3.30;;;1.40;;
39346;SDS011;26262;49.836;6.632;2023-04-03T10:17:18;5.78;;;2.25;;
39346;SDS011;26262;49.836;6.632;2023-04-03T10:30:39;2.55;;;1.33;;
39346;SDS011;26262;49.836;6.632;2023-04-03T10:44:05;2.55;;;1.05;;
39346;SDS011;26262;49.836;6.632;2023-04-03T10:47:16;3.42;;;1.20;;
39346;SDS011;26262;49.836;6.632;2023-04-03T10:52:07;2.72;;;1.10;;
39346;SDS011;26262;49.836;6.632;2023-04-03T10:54:52;3.03;;;1.15;;
39346;SDS011;26262;49.836;6.632;2023-04-03T10:57:32;3.22;;;1.13;;
39346;SDS011;26262;49.836;6.632;2023-04-03T10:59:59;2.80;;;1.33;;
39346;SDS011;26262;49.836;6.632;2023-04-03T11:02:35;2.92;;;1.30;;
39346;SDS011;26262;49.836;6.632;2023-04-03T11:05:13;4.55;;;1.67;;
39346;SDS011;26262;49.836;6.632;2023-04-03T11:07:47;3.53;;;0.98;;
39346;SDS011;26262;49.836;6.632;2023-04-03T11:10:17;2.97;;;1.15;;
39346;SDS011;26262;49.836;6.632;2023-04-03T11:15:19;2.80;;;1.05;;
39346;SDS011;26262;49.836;6.632;2023-04-03T11:22:45;2.22;;;1.30;;
39346;SDS011;26262;49.836;6.632;2023-04-03T11:25:22;2.35;;;1.15;;
39346;SDS011;26262;49.836;6.632;2023-04-03T11:36:18;3.08;;;1.20;;
39346;SDS011;26262;49.836;6.632;2023-04-03T11:38:50;3.22;;;1.15;;
39346;SDS011;26262;49.836;6.632;2023-04-03T11:41:24;4.07;;;1.10;;
39346;SDS011;26262;49.836;6.632;2023-04-03T11:44:03;4.13;;;1.50;;
39346;SDS011;26262;49.836;6.632;2023-04-03T12:16:19;4.90;;;1.10;;
39346;SDS011;26262;49.836;6.632;2023-04-03T12:26:36;3.38;;;1.40;;
39346;SDS011;26262;49.836;6.632;2023-04-03T12:34:43;3.20;;;1.13;;
39346;SDS011;26262;49.836;6.632;2023-04-03T12:37:34;3.35;;;1.10;;
39346;SDS011;26262;49.836;6.632;2023-04-03T12:40:38;4.10;;;1.20;;
39346;SDS011;26262;49.836;6.632;2023-04-03T12:43:10;4.25;;;1.10;;
39346;SDS011;26262;49.836;6.632;2023-04-03T12:45:52;2.15;;;0.80;;
39346;SDS011;26262;49.836;6.632;2023-04-03T12:48:38;3.70;;;1.10;;
39346;SDS011;26262;49.836;6.632;2023-04-03T12:51:14;3.75;;;1.23;;
39346;SDS011;26262;49.836;6.632;2023-04-03T12:53:42;2.83;;;0.90;;
39346;SDS011;26262;49.836;6.632;2023-04-03T12:56:28;6.00;;;2.80;;
39346;SDS011;26262;49.836;6.632;2023-04-03T12:59:12;2.38;;;1.10;;
39346;SDS011;26262;49.836;6.632;2023-04-03T13:01:41;4.15;;;1.58;;
39346;SDS011;26262;49.836;6.632;2023-04-03T13:04:07;2.55;;;0.95;;
39346;SDS011;26262;49.836;6.632;2023-04-03T13:06:43;4.80;;;1.17;;
39346;SDS011;26262;49.836;6.632;2023-04-03T13:11:52;3.97;;;1.23;;
39346;SDS011;26262;49.836;6.632;2023-04-03T13:14:24;3.13;;;1.30;;
39346;SDS011;26262;49.836;6.632;2023-04-03T13:16:56;2.75;;;0.95;;
39346;SDS011;26262;49.836;6.632;2023-04-03T13:19:24;2.45;;;1.02;;
39346;SDS011;26262;49.836;6.632;2023-04-03T13:24:22;3.47;;;1.45;;
39346;SDS011;26262;49.836;6.632;2023-04-03T13:26:48;4.70;;;1.08;;
39346;SDS011;26262;49.836;6.632;2023-04-03T13:29:23;3.28;;;1.17;;
39346;SDS011;26262;49.836;6.632;2023-04-03T13:31:53;3.33;;;1.00;;
39346;SDS011;26262;49.836;6.632;2023-04-03T13:34:21;5.60;;;1.40;;
39346;SDS011;26262;49.836;6.632;2023-04-03T13:41:44;5.10;;;1.63;;
39346;SDS011;26262;49.836;6.632;2023-04-03T13:46:51;4.47;;;1.23;;
39346;SDS011;26262;49.836;6.632;2023-04-03T13:51:47;3.10;;;1.30;;
39346;SDS011;26262;49.836;6.632;2023-04-03T13:54:18;3.63;;;1.38;;
39346;SDS011;26262;49.836;6.632;2023-04-03T13:56:57;1.80;;;1.05;;
39346;SDS011;26262;49.836;6.632;2023-04-03T13:59:25;4.07;;;0.90;;
39346;SDS011;26262;49.836;6.632;2023-04-03T14:04:31;2.83;;;1.00;;
39346;SDS011;26262;49.836;6.632;2023-04-03T14:07:09;2.50;;;0.93;;
39346;SDS011;26262;49.836;6.632;2023-04-03T14:09:38;2.42;;;1.10;;
39346;SDS011;26262;49.836;6.632;2023-04-03T14:12:05;3.03;;;1.05;;
39346;SDS011;26262;49.836;6.632;2023-04-03T14:14:34;5.68;;;1.23;;
39346;SDS011;26262;49.836;6.632;2023-04-03T14:17:03;2.80;;;1.10;;
39346;SDS011;26262;49.836;6.632;2023-04-03T14:19:45;2.90;;;1.00;;
39346;SDS011;26262;49.836;6.632;2023-04-03T14:22:14;2.93;;;1.13;;
39346;SDS011;26262;49.836;6.632;2023-04-03T14:24:41;2.20;;;1.30;;
39346;SDS011;26262;49.836;6.632;2023-04-03T14:29:48;3.40;;;1.20;;
39346;SDS011;26262;49.836;6.632;2023-04-03T14:32:16;3.90;;;1.00;;
39346;SDS011;26262;49.836;6.632;2023-04-03T14:34:43;4.05;;;0.90;;
39346;SDS011;26262;49.836;6.632;2023-04-03T14:37:11;2.83;;;0.90;;
39346;SDS011;26262;49.836;6.632;2023-04-03T14:39:42;1.65;;;0.77;;
39346;SDS011;26262;49.836;6.632;2023-04-03T14:42:12;3.75;;;1.13;;
39346;SDS011;26262;49.836;6.632;2023-04-03T14:44:40;4.40;;;1.38;;
39346;SDS011;26262;49.836;6.632;2023-04-03T14:47:08;3.83;;;1.20;;
39346;SDS011;26262;49.836;6.632;2023-04-03T14:49:38;2.47;;;0.90;;
39346;SDS011;26262;49.836;6.632;2023-04-03T14:52:04;2.67;;;0.90;;
39346;SDS011;26262;49.836;6.632;2023-04-03T14:54:30;2.67;;;0.90;;
39346;SDS011;26262;49.836;6.632;2023-04-03T14:56:57;3.13;;;1.17;;
39346;SDS011;26262;49.836;6.632;2023-04-03T14:59:24;2.58;;;1.27;;
39346;SDS011;26262;49.836;6.632;2023-04-03T15:01:51;4.87;;;1.73;;
39346;SDS011;26262;49.836;6.632;2023-04-03T15:04:18;4.00;;;1.10;;
39346;SDS011;26262;49.836;6.632;2023-04-03T15:06:45;3.00;;;0.85;;
39346;SDS011;26262;49.836;6.632;2023-04-03T15:09:19;3.15;;;0.90;;
39346;SDS011;26262;49.836;6.632;2023-04-03T15:11:51;2.47;;;1.02;;
39346;SDS011;26262;49.836;6.632;2023-04-03T15:14:17;3.45;;;1.45;;
39346;SDS011;26262;49.836;6.632;2023-04-03T15:16:43;2.40;;;0.95;;
39346;SDS011;26262;49.836;6.632;2023-04-03T15:19:10;4.15;;;1.00;;
39346;SDS011;26262;49.836;6.632;2023-04-03T15:21:36;2.95;;;1.20;;
39346;SDS011;26262;49.836;6.632;2023-04-03T15:24:03;1.85;;;0.98;;
39346;SDS011;26262;49.836;6.632;2023-04-03T15:26:28;3.30;;;1.35;;
39346;SDS011;26262;49.836;6.632;2023-04-03T15:28:54;3.75;;;1.13;;
39346;SDS011;26262;49.836;6.632;2023-04-03T15:31:20;2.72;;;0.80;;
39346;SDS011;26262;49.836;6.632;2023-04-03T15:33:45;3.72;;;1.00;;
39346;SDS011;26262;49.836;6.632;2023-04-03T15:36:11;2.60;;;1.10;;
39346;SDS011;26262;49.836;6.632;2023-04-03T15:38:36;2.15;;;0.95;;
39346;SDS011;26262;49.836;6.632;2023-04-03T15:41:03;2.65;;;1.20;;
39346;SDS011;26262;49.836;6.632;2023-04-03T15:43:30;3.78;;;1.23;;
39346;SDS011;26262;49.836;6.632;2023-04-03T15:45:56;3.95;;;1.17;;
39346;SDS011;26262;49.836;6.632;2023-04-03T15:48:23;1.70;;;0.98;;
39346;SDS011;26262;49.836;6.632;2023-04-03T15:50:48;2.83;;;0.77;;
39346;SDS011;26262;49.836;6.632;2023-04-03T15:53:14;3.13;;;1.60;;
39346;SDS011;26262;49.836;6.632;2023-04-03T15:55:40;3.42;;;1.13;;
39346;SDS011;26262;49.836;6.632;2023-04-03T15:58:06;4.68;;;1.50;;
39346;SDS011;26262;49.836;6.632;2023-04-03T16:00:31;4.13;;;1.63;;
39346;SDS011;26262;49.836;6.632;2023-04-03T16:02:59;3.33;;;1.40;;
39346;SDS011;26262;49.836;6.632;2023-04-03T16:05:40;1.52;;;1.27;;
39346;SDS011;26262;49.836;6.632;2023-04-03T16:08:07;2.60;;;1.08;;
39346;SDS011;26262;49.836;6.632;2023-04-03T16:10:33;3.08;;;1.05;;
39346;SDS011;26262;49.836;6.632;2023-04-03T16:13:00;2.33;;;1.05;;
39346;SDS011;26262;49.836;6.632;2023-04-03T16:15:26;1.60;;;0.90;;
39346;SDS011;26262;49.836;6.632;2023-04-03T16:17:52;3.25;;;1.42;;
39346;SDS011;26262;49.836;6.632;2023-04-03T16:20:18;4.18;;;1.10;;
39346;SDS011;26262;49.836;6.632;2023-04-03T16:22:45;2.92;;;1.30;;
39346;SDS011;26262;49.836;6.632;2023-04-03T16:25:10;3.92;;;1.10;;
39346;SDS011;26262;49.836;6.632;2023-04-03T16:27:36;1.90;;;1.20;;
39346;SDS011;26262;49.836;6.632;2023-04-03T16:30:03;3.67;;;1.17;;
39346;SDS011;26262;49.836;6.632;2023-04-03T16:32:30;3.08;;;1.25;;
39346;SDS011;26262;49.836;6.632;2023-04-03T16:34:56;4.35;;;1.63;;
39346;SDS011;26262;49.836;6.632;2023-04-03T16:37:22;4.68;;;3.50;;
39346;SDS011;26262;49.836;6.632;2023-04-03T16:39:48;2.45;;;1.10;;
39346;SDS011;26262;49.836;6.632;2023-04-03T16:42:14;2.95;;;1.30;;
39346;SDS011;26262;49.836;6.632;2023-04-03T16:44:40;5.57;;;1.55;;
39346;SDS011;26262;49.836;6.632;2023-04-03T16:47:06;3.30;;;1.17;;
39346;SDS011;26262;49.836;6.632;2023-04-03T16:49:32;4.40;;;1.27;;
39346;SDS011;26262;49.836;6.632;2023-04-03T16:51:59;2.10;;;1.10;;
39346;SDS011;26262;49.836;6.632;2023-04-03T16:54:25;2.80;;;1.20;;
39346;SDS011;26262;49.836;6.632;2023-04-03T16:56:51;4.28;;;1.60;;
39346;SDS011;26262;49.836;6.632;2023-04-03T16:59:17;2.90;;;1.35;;
39346;SDS011;26262;49.836;6.632;2023-04-03T17:01:43;2.45;;;1.25;;
39346;SDS011;26262;49.836;6.632;2023-04-03T17:04:08;1.67;;;0.90;;